sensor_id;sensor_type;location;lat;lon;timestamp;P1;durP1;ratioP1;P2;durP2;ratioP2
11418;SDS011;32800;44.876;13.880;2023-04-03T00:01:28;2.63;;;0.90;;
11418;SDS011;32800;44.876;13.880;2023-04-03T00:03:54;1.50;;;0.83;;
11418;SDS011;32800;44.876;13.880;2023-04-03T00:06:19;1.50;;;0.90;;
11418;SDS011;32800;44.876;13.880;2023-04-03T00:08:45;0.70;;;0.70;;
11418;SDS011;32800;44.876;13.880;2023-04-03T00:11:11;0.73;;;0.70;;
11418;SDS011;32800;44.876;13.880;2023-04-03T00:13:37;0.90;;;0.80;;
11418;SDS011;32800;44.876;13.880;2023-04-03T00:16:03;0.80;;;0.80;;
11418;SDS011;32800;44.876;13.880;2023-04-03T00:18:29;1.10;;;0.80;;
11418;SDS011;32800;44.876;13.880;2023-04-03T00:20:54;0.83;;;0.70;;
11418;SDS011;32800;44.876;13.880;2023-04-03T00:23:20;0.93;;;0.80;;
11418;SDS011;32800;44.876;13.880;2023-04-03T00:25:48;1.70;;;1.10;;
11418;SDS011;32800;44.876;13.880;2023-04-03T00:28:14;1.33;;;0.80;;
11418;SDS011;32800;44.876;13.880;2023-04-03T00:30:40;1.60;;;0.87;;
11418;SDS011;32800;44.876;13.880;2023-04-03T00:33:06;1.40;;;0.90;;
11418;SDS011;32800;44.876;13.880;2023-04-03T00:35:32;0.77;;;0.77;;
11418;SDS011;32800;44.876;13.880;2023-04-03T00:37:59;0.60;;;0.60;;
11418;SDS011;32800;44.876;13.880;2023-04-03T00:40:26;1.10;;;0.90;;
11418;SDS011;32800;44.876;13.880;2023-04-03T00:42:55;0.70;;;0.67;;
11418;SDS011;32800;44.876;13.880;2023-04-03T00:45:30;1.13;;;0.90;;
11418;SDS011;32800;44.876;13.880;2023-04-03T00:47:56;1.00;;;0.90;;
11418;SDS011;32800;44.876;13.880;2023-04-03T00:50:24;0.80;;;0.80;;
11418;SDS011;32800;44.876;13.880;2023-04-03T00:52:50;0.60;;;0.60;;
11418;SDS011;32800;44.876;13.880;2023-04-03T00:55:16;0.97;;;0.80;;
11418;SDS011;32800;44.876;13.880;2023-04-03T00:57:42;0.70;;;0.70;;
11418;SDS011;32800;44.876;13.880;2023-04-03T01:00:09;1.23;;;0.77;;
11418;SDS011;32800;44.876;13.880;2023-04-03T01:02:36;0.80;;;0.80;;
11418;SDS011;32800;44.876;13.880;2023-04-03T01:05:03;1.17;;;0.90;;
11418;SDS011;32800;44.876;13.880;2023-04-03T01:07:30;0.67;;;0.67;;
11418;SDS011;32800;44.876;13.880;2023-04-03T01:09:57;1.17;;;0.73;;
11418;SDS011;32800;44.876;13.880;2023-04-03T01:12:43;1.17;;;0.70;;
11418;SDS011;32800;44.876;13.880;2023-04-03T01:15:15;0.60;;;0.60;;
11418;SDS011;32800;44.876;13.880;2023-04-03T01:17:45;0.70;;;0.70;;
11418;SDS011;32800;44.876;13.880;2023-04-03T01:20:41;1.00;;;0.90;;
11418;SDS011;32800;44.876;13.880;2023-04-03T01:25:26;0.80;;;0.70;;
11418;SDS011;32800;44.876;13.880;2023-04-03T01:27:52;0.90;;;0.80;;
11418;SDS011;32800;44.876;13.880;2023-04-03T01:30:18;0.97;;;0.80;;
11418;SDS011;32800;44.876;13.880;2023-04-03T01:32:45;0.70;;;0.70;;
11418;SDS011;32800;44.876;13.880;2023-04-03T01:35:11;0.63;;;0.63;;
11418;SDS011;32800;44.876;13.880;2023-04-03T01:37:37;0.87;;;0.77;;
11418;SDS011;32800;44.876;13.880;2023-04-03T01:40:03;1.00;;;0.77;;
11418;SDS011;32800;44.876;13.880;2023-04-03T01:42:29;0.57;;;0.57;;
11418;SDS011;32800;44.876;13.880;2023-04-03T01:44:55;0.80;;;0.70;;
11418;SDS011;32800;44.876;13.880;2023-04-03T01:47:21;0.80;;;0.80;;
11418;SDS011;32800;44.876;13.880;2023-04-03T01:49:47;1.27;;;0.80;;
11418;SDS011;32800;44.876;13.880;2023-04-03T01:52:12;0.70;;;0.60;;
11418;SDS011;32800;44.876;13.880;2023-04-03T01:54:38;0.93;;;0.87;;
11418;SDS011;32800;44.876;13.880;2023-04-03T01:57:03;1.50;;;0.70;;
11418;SDS011;32800;44.876;13.880;2023-04-03T01:59:29;0.70;;;0.70;;
11418;SDS011;32800;44.876;13.880;2023-04-03T02:01:55;0.80;;;0.70;;
11418;SDS011;32800;44.876;13.880;2023-04-03T02:04:20;1.23;;;0.60;;
11418;SDS011;32800;44.876;13.880;2023-04-03T02:06:46;0.67;;;0.67;;
11418;SDS011;32800;44.876;13.880;2023-04-03T02:09:12;0.60;;;0.60;;
11418;SDS011;32800;44.876;13.880;2023-04-03T02:11:37;0.73;;;0.70;;
11418;SDS011;32800;44.876;13.880;2023-04-03T02:14:03;0.80;;;0.80;;
11418;SDS011;32800;44.876;13.880;2023-04-03T02:16:28;0.70;;;0.70;;
11418;SDS011;32800;44.876;13.880;2023-04-03T02:18:55;0.60;;;0.60;;
11418;SDS011;32800;44.876;13.880;2023-04-03T02:21:21;0.60;;;0.60;;
11418;SDS011;32800;44.876;13.880;2023-04-03T02:23:47;0.90;;;0.70;;
11418;SDS011;32800;44.876;13.880;2023-04-03T02:26:13;1.33;;;0.93;;
11418;SDS011;32800;44.876;13.880;2023-04-03T02:28:40;0.70;;;0.70;;
11418;SDS011;32800;44.876;13.880;2023-04-03T02:31:06;0.80;;;0.80;;
11418;SDS011;32800;44.876;13.880;2023-04-03T02:33:32;0.63;;;0.63;;
11418;SDS011;32800;44.876;13.880;2023-04-03T02:35:59;0.70;;;0.70;;
11418;SDS011;32800;44.876;13.880;2023-04-03T02:38:24;0.70;;;0.70;;
11418;SDS011;32800;44.876;13.880;2023-04-03T02:40:50;0.70;;;0.70;;
11418;SDS011;32800;44.876;13.880;2023-04-03T02:43:16;0.60;;;0.60;;
11418;SDS011;32800;44.876;13.880;2023-04-03T02:45:42;0.80;;;0.70;;
11418;SDS011;32800;44.876;13.880;2023-04-03T02:48:07;0.80;;;0.80;;
11418;SDS011;32800;44.876;13.880;2023-04-03T02:50:33;0.70;;;0.70;;
11418;SDS011;32800;44.876;13.880;2023-04-03T02:52:58;0.60;;;0.60;;
11418;SDS011;32800;44.876;13.880;2023-04-03T02:55:24;1.30;;;0.80;;
11418;SDS011;32800;44.876;13.880;2023-04-03T02:57:50;0.67;;;0.67;;
11418;SDS011;32800;44.876;13.880;2023-04-03T03:00:15;0.70;;;0.70;;
11418;SDS011;32800;44.876;13.880;2023-04-03T03:02:41;0.87;;;0.80;;
11418;SDS011;32800;44.876;13.880;2023-04-03T03:05:07;0.60;;;0.60;;
11418;SDS011;32800;44.876;13.880;2023-04-03T03:07:33;0.60;;;0.60;;
11418;SDS011;32800;44.876;13.880;2023-04-03T03:09:58;0.70;;;0.70;;
11418;SDS011;32800;44.876;13.880;2023-04-03T03:12:24;0.60;;;0.60;;
11418;SDS011;32800;44.876;13.880;2023-04-03T03:14:50;0.90;;;0.80;;
11418;SDS011;32800;44.876;13.880;2023-04-03T03:17:16;0.70;;;0.60;;
11418;SDS011;32800;44.876;13.880;2023-04-03T03:19:42;0.93;;;0.80;;
11418;SDS011;32800;44.876;13.880;2023-04-03T03:22:07;0.77;;;0.67;;
11418;SDS011;32800;44.876;13.880;2023-04-03T03:24:33;0.70;;;0.70;;
11418;SDS011;32800;44.876;13.880;2023-04-03T03:26:58;0.70;;;0.70;;
11418;SDS011;32800;44.876;13.880;2023-04-03T03:29:24;0.60;;;0.60;;
11418;SDS011;32800;44.876;13.880;2023-04-03T03:31:49;0.80;;;0.67;;
11418;SDS011;32800;44.876;13.880;2023-04-03T03:34:15;0.40;;;0.40;;
11418;SDS011;32800;44.876;13.880;2023-04-03T03:36:41;0.80;;;0.70;;
11418;SDS011;32800;44.876;13.880;2023-04-03T03:39:06;0.70;;;0.70;;
11418;SDS011;32800;44.876;13.880;2023-04-03T03:41:32;0.63;;;0.60;;
11418;SDS011;32800;44.876;13.880;2023-04-03T03:43:57;1.00;;;0.80;;
11418;SDS011;32800;44.876;13.880;2023-04-03T03:46:23;0.70;;;0.70;;
11418;SDS011;32800;44.876;13.880;2023-04-03T03:48:48;0.77;;;0.70;;
11418;SDS011;32800;44.876;13.880;2023-04-03T03:51:14;1.23;;;0.80;;
11418;SDS011;32800;44.876;13.880;2023-04-03T03:53:40;1.03;;;0.80;;
11418;SDS011;32800;44.876;13.880;2023-04-03T03:56:05;1.03;;;1.00;;
11418;SDS011;32800;44.876;13.880;2023-04-03T03:58:31;0.77;;;0.63;;
11418;SDS011;32800;44.876;13.880;2023-04-03T04:01:00;1.00;;;0.70;;
11418;SDS011;32800;44.876;13.880;2023-04-03T04:03:28;0.70;;;0.70;;
11418;SDS011;32800;44.876;13.880;2023-04-03T04:05:54;0.80;;;0.80;;
11418;SDS011;32800;44.876;13.880;2023-04-03T04:08:20;1.30;;;0.90;;
11418;SDS011;32800;44.876;13.880;2023-04-03T04:10:45;0.63;;;0.50;;
11418;SDS011;32800;44.876;13.880;2023-04-03T04:13:11;0.70;;;0.70;;
11418;SDS011;32800;44.876;13.880;2023-04-03T04:15:36;0.70;;;0.70;;
11418;SDS011;32800;44.876;13.880;2023-04-03T04:18:02;0.60;;;0.60;;
11418;SDS011;32800;44.876;13.880;2023-04-03T04:20:28;0.70;;;0.70;;
11418;SDS011;32800;44.876;13.880;2023-04-03T04:22:54;0.70;;;0.70;;
11418;SDS011;32800;44.876;13.880;2023-04-03T04:25:19;0.87;;;0.80;;
11418;SDS011;32800;44.876;13.880;2023-04-03T04:27:45;1.07;;;0.67;;
11418;SDS011;32800;44.876;13.880;2023-04-03T04:30:10;1.07;;;0.70;;
11418;SDS011;32800;44.876;13.880;2023-04-03T04:32:37;0.70;;;0.63;;
11418;SDS011;32800;44.876;13.880;2023-04-03T04:35:02;1.03;;;0.80;;
11418;SDS011;32800;44.876;13.880;2023-04-03T04:37:29;0.80;;;0.60;;
11418;SDS011;32800;44.876;13.880;2023-04-03T04:39:54;0.83;;;0.60;;
11418;SDS011;32800;44.876;13.880;2023-04-03T04:42:20;0.73;;;0.70;;
11418;SDS011;32800;44.876;13.880;2023-04-03T04:44:46;0.70;;;0.70;;
11418;SDS011;32800;44.876;13.880;2023-04-03T04:47:11;0.70;;;0.70;;
11418;SDS011;32800;44.876;13.880;2023-04-03T04:49:36;0.73;;;0.73;;
11418;SDS011;32800;44.876;13.880;2023-04-03T04:52:02;0.70;;;0.70;;
11418;SDS011;32800;44.876;13.880;2023-04-03T04:54:28;0.70;;;0.70;;
11418;SDS011;32800;44.876;13.880;2023-04-03T04:56:53;0.53;;;0.50;;
11418;SDS011;32800;44.876;13.880;2023-04-03T04:59:19;0.80;;;0.80;;
11418;SDS011;32800;44.876;13.880;2023-04-03T05:01:45;0.63;;;0.50;;
11418;SDS011;32800;44.876;13.880;2023-04-03T05:04:11;0.70;;;0.70;;
11418;SDS011;32800;44.876;13.880;2023-04-03T05:06:37;1.13;;;0.80;;
11418;SDS011;32800;44.876;13.880;2023-04-03T05:09:03;0.70;;;0.70;;
11418;SDS011;32800;44.876;13.880;2023-04-03T05:11:29;0.60;;;0.60;;
11418;SDS011;32800;44.876;13.880;2023-04-03T05:13:55;0.90;;;0.70;;
11418;SDS011;32800;44.876;13.880;2023-04-03T05:16:20;0.90;;;0.67;;
11418;SDS011;32800;44.876;13.880;2023-04-03T05:18:46;1.07;;;0.60;;
11418;SDS011;32800;44.876;13.880;2023-04-03T05:21:12;0.70;;;0.70;;
11418;SDS011;32800;44.876;13.880;2023-04-03T05:23:37;0.57;;;0.57;;
11418;SDS011;32800;44.876;13.880;2023-04-03T05:26:03;0.87;;;0.80;;
11418;SDS011;32800;44.876;13.880;2023-04-03T05:28:29;0.60;;;0.60;;
11418;SDS011;32800;44.876;13.880;2023-04-03T05:30:58;0.70;;;0.70;;
11418;SDS011;32800;44.876;13.880;2023-04-03T05:33:24;0.70;;;0.70;;
11418;SDS011;32800;44.876;13.880;2023-04-03T05:35:51;0.60;;;0.60;;
11418;SDS011;32800;44.876;13.880;2023-04-03T05:38:17;0.90;;;0.60;;
11418;SDS011;32800;44.876;13.880;2023-04-03T05:40:43;0.60;;;0.60;;
11418;SDS011;32800;44.876;13.880;2023-04-03T05:43:08;1.53;;;0.80;;
11418;SDS011;32800;44.876;13.880;2023-04-03T05:45:34;1.00;;;0.70;;
11418;SDS011;32800;44.876;13.880;2023-04-03T05:48:00;0.63;;;0.63;;
11418;SDS011;32800;44.876;13.880;2023-04-03T05:50:25;1.87;;;0.60;;
11418;SDS011;32800;44.876;13.880;2023-04-03T05:52:51;3.53;;;0.90;;
11418;SDS011;32800;44.876;13.880;2023-04-03T05:55:18;1.10;;;0.70;;
11418;SDS011;32800;44.876;13.880;2023-04-03T05:57:43;0.70;;;0.70;;
11418;SDS011;32800;44.876;13.880;2023-04-03T06:00:11;2.93;;;0.70;;
11418;SDS011;32800;44.876;13.880;2023-04-03T06:02:39;0.90;;;0.80;;
11418;SDS011;32800;44.876;13.880;2023-04-03T06:05:05;0.80;;;0.77;;
11418;SDS011;32800;44.876;13.880;2023-04-03T06:07:32;0.60;;;0.60;;
11418;SDS011;32800;44.876;13.880;2023-04-03T06:09:57;0.60;;;0.60;;
11418;SDS011;32800;44.876;13.880;2023-04-03T06:12:23;1.97;;;0.80;;
11418;SDS011;32800;44.876;13.880;2023-04-03T06:14:48;1.03;;;0.70;;
11418;SDS011;32800;44.876;13.880;2023-04-03T06:17:14;0.60;;;0.60;;
11418;SDS011;32800;44.876;13.880;2023-04-03T06:19:41;1.13;;;0.80;;
11418;SDS011;32800;44.876;13.880;2023-04-03T06:22:06;0.83;;;0.80;;
11418;SDS011;32800;44.876;13.880;2023-04-03T06:24:32;0.70;;;0.70;;
11418;SDS011;32800;44.876;13.880;2023-04-03T06:26:58;0.83;;;0.80;;
11418;SDS011;32800;44.876;13.880;2023-04-03T06:29:23;1.20;;;0.83;;
11418;SDS011;32800;44.876;13.880;2023-04-03T06:31:50;0.53;;;0.53;;
11418;SDS011;32800;44.876;13.880;2023-04-03T06:34:16;0.50;;;0.50;;
11418;SDS011;32800;44.876;13.880;2023-04-03T06:36:43;0.60;;;0.60;;
11418;SDS011;32800;44.876;13.880;2023-04-03T06:39:16;0.63;;;0.63;;
11418;SDS011;32800;44.876;13.880;2023-04-03T06:41:50;0.60;;;0.60;;
11418;SDS011;32800;44.876;13.880;2023-04-03T06:44:16;0.60;;;0.60;;
11418;SDS011;32800;44.876;13.880;2023-04-03T06:46:42;0.57;;;0.50;;
11418;SDS011;32800;44.876;13.880;2023-04-03T06:49:09;0.70;;;0.70;;
11418;SDS011;32800;44.876;13.880;2023-04-03T06:51:35;0.80;;;0.70;;
11418;SDS011;32800;44.876;13.880;2023-04-03T06:54:01;0.60;;;0.60;;
11418;SDS011;32800;44.876;13.880;2023-04-03T06:56:27;1.20;;;0.70;;
11418;SDS011;32800;44.876;13.880;2023-04-03T06:58:54;0.50;;;0.50;;
11418;SDS011;32800;44.876;13.880;2023-04-03T07:01:22;0.60;;;0.60;;
11418;SDS011;32800;44.876;13.880;2023-04-03T07:03:49;0.70;;;0.70;;
11418;SDS011;32800;44.876;13.880;2023-04-03T07:06:15;1.03;;;0.60;;
11418;SDS011;32800;44.876;13.880;2023-04-03T07:08:41;0.80;;;0.67;;
11418;SDS011;32800;44.876;13.880;2023-04-03T07:11:07;0.83;;;0.63;;
11418;SDS011;32800;44.876;13.880;2023-04-03T07:13:33;0.80;;;0.80;;
11418;SDS011;32800;44.876;13.880;2023-04-03T07:15:59;0.70;;;0.70;;
11418;SDS011;32800;44.876;13.880;2023-04-03T07:18:25;0.73;;;0.70;;
11418;SDS011;32800;44.876;13.880;2023-04-03T07:20:51;0.53;;;0.53;;
11418;SDS011;32800;44.876;13.880;2023-04-03T07:23:17;0.80;;;0.70;;
11418;SDS011;32800;44.876;13.880;2023-04-03T07:25:43;0.60;;;0.60;;
11418;SDS011;32800;44.876;13.880;2023-04-03T07:28:09;0.50;;;0.50;;
11418;SDS011;32800;44.876;13.880;2023-04-03T07:30:43;0.60;;;0.60;;
11418;SDS011;32800;44.876;13.880;2023-04-03T07:33:13;0.60;;;0.60;;
11418;SDS011;32800;44.876;13.880;2023-04-03T07:35:40;0.60;;;0.60;;
11418;SDS011;32800;44.876;13.880;2023-04-03T07:38:06;0.70;;;0.70;;
11418;SDS011;32800;44.876;13.880;2023-04-03T07:40:32;1.20;;;0.60;;
11418;SDS011;32800;44.876;13.880;2023-04-03T07:42:58;0.60;;;0.60;;
11418;SDS011;32800;44.876;13.880;2023-04-03T07:45:23;0.77;;;0.63;;
11418;SDS011;32800;44.876;13.880;2023-04-03T07:47:50;3.67;;;0.87;;
11418;SDS011;32800;44.876;13.880;2023-04-03T07:50:16;0.50;;;0.50;;
11418;SDS011;32800;44.876;13.880;2023-04-03T07:52:42;0.70;;;0.70;;
11418;SDS011;32800;44.876;13.880;2023-04-03T07:55:07;1.17;;;0.63;;
11418;SDS011;32800;44.876;13.880;2023-04-03T07:57:33;0.90;;;0.60;;
11418;SDS011;32800;44.876;13.880;2023-04-03T07:59:59;0.60;;;0.60;;
11418;SDS011;32800;44.876;13.880;2023-04-03T08:02:24;0.50;;;0.50;;
11418;SDS011;32800;44.876;13.880;2023-04-03T08:04:50;1.63;;;0.63;;
11418;SDS011;32800;44.876;13.880;2023-04-03T08:07:16;0.73;;;0.70;;
11418;SDS011;32800;44.876;13.880;2023-04-03T08:09:41;0.60;;;0.60;;
11418;SDS011;32800;44.876;13.880;2023-04-03T08:12:07;0.80;;;0.80;;
11418;SDS011;32800;44.876;13.880;2023-04-03T08:14:32;0.60;;;0.60;;
11418;SDS011;32800;44.876;13.880;2023-04-03T08:16:59;0.60;;;0.60;;
11418;SDS011;32800;44.876;13.880;2023-04-03T08:19:25;0.70;;;0.70;;
11418;SDS011;32800;44.876;13.880;2023-04-03T08:21:51;0.60;;;0.60;;
11418;SDS011;32800;44.876;13.880;2023-04-03T08:24:17;0.97;;;0.60;;
11418;SDS011;32800;44.876;13.880;2023-04-03T08:26:43;0.70;;;0.70;;
11418;SDS011;32800;44.876;13.880;2023-04-03T08:29:08;0.77;;;0.77;;
11418;SDS011;32800;44.876;13.880;2023-04-03T08:31:34;0.60;;;0.60;;
11418;SDS011;32800;44.876;13.880;2023-04-03T08:33:59;1.17;;;0.80;;
11418;SDS011;32800;44.876;13.880;2023-04-03T08:36:26;1.95;;;0.60;;
11418;SDS011;32800;44.876;13.880;2023-04-03T08:38:53;1.27;;;0.75;;
11418;SDS011;32800;44.876;13.880;2023-04-03T08:41:25;0.73;;;0.73;;
11418;SDS011;32800;44.876;13.880;2023-04-03T08:44:03;0.90;;;0.60;;
11418;SDS011;32800;44.876;13.880;2023-04-03T08:49:35;1.85;;;0.77;;
11418;SDS011;32800;44.876;13.880;2023-04-03T08:52:09;1.55;;;0.60;;
11418;SDS011;32800;44.876;13.880;2023-04-03T08:54:59;1.65;;;0.77;;
11418;SDS011;32800;44.876;13.880;2023-04-03T09:00:04;0.75;;;0.70;;
11418;SDS011;32800;44.876;13.880;2023-04-03T09:02:43;2.20;;;0.77;;
11418;SDS011;32800;44.876;13.880;2023-04-03T09:05:11;2.53;;;0.80;;
11418;SDS011;32800;44.876;13.880;2023-04-03T09:07:42;0.70;;;0.70;;
11418;SDS011;32800;44.876;13.880;2023-04-03T09:10:14;2.50;;;0.73;;
11418;SDS011;32800;44.876;13.880;2023-04-03T09:12:44;0.80;;;0.80;;
11418;SDS011;32800;44.876;13.880;2023-04-03T09:15:19;1.95;;;0.80;;
11418;SDS011;32800;44.876;13.880;2023-04-03T09:17:55;0.90;;;0.90;;
11418;SDS011;32800;44.876;13.880;2023-04-03T09:23:28;0.70;;;0.70;;
11418;SDS011;32800;44.876;13.880;2023-04-03T09:26:00;1.75;;;0.60;;
11418;SDS011;32800;44.876;13.880;2023-04-03T09:28:40;0.80;;;0.73;;
11418;SDS011;32800;44.876;13.880;2023-04-03T09:33:54;1.52;;;0.80;;
11418;SDS011;32800;44.876;13.880;2023-04-03T09:39:25;0.98;;;0.88;;
11418;SDS011;32800;44.876;13.880;2023-04-03T09:41:57;0.73;;;0.65;;
11418;SDS011;32800;44.876;13.880;2023-04-03T09:44:31;0.60;;;0.60;;
11418;SDS011;32800;44.876;13.880;2023-04-03T09:46:57;3.35;;;0.75;;
11418;SDS011;32800;44.876;13.880;2023-04-03T09:49:24;1.33;;;0.52;;
11418;SDS011;32800;44.876;13.880;2023-04-03T09:51:49;0.70;;;0.70;;
11418;SDS011;32800;44.876;13.880;2023-04-03T09:54:25;2.92;;;0.80;;
11418;SDS011;32800;44.876;13.880;2023-04-03T09:56:56;1.45;;;0.80;;
11418;SDS011;32800;44.876;13.880;2023-04-03T09:59:25;0.80;;;0.80;;
11418;SDS011;32800;44.876;13.880;2023-04-03T10:01:59;0.80;;;0.80;;
11418;SDS011;32800;44.876;13.880;2023-04-03T10:04:37;1.77;;;0.70;;
11418;SDS011;32800;44.876;13.880;2023-04-03T10:07:26;0.88;;;0.75;;
11418;SDS011;32800;44.876;13.880;2023-04-03T10:10:16;1.00;;;0.73;;
11418;SDS011;32800;44.876;13.880;2023-04-03T10:12:45;0.73;;;0.70;;
11418;SDS011;32800;44.876;13.880;2023-04-03T10:15:11;1.10;;;0.70;;
11418;SDS011;32800;44.876;13.880;2023-04-03T10:28:09;1.40;;;0.70;;
11418;SDS011;32800;44.876;13.880;2023-04-03T10:30:57;0.73;;;0.73;;
11418;SDS011;32800;44.876;13.880;2023-04-03T10:33:49;0.98;;;0.70;;
11418;SDS011;32800;44.876;13.880;2023-04-03T10:36:33;1.80;;;1.05;;
11418;SDS011;32800;44.876;13.880;2023-04-03T10:39:15;0.80;;;0.75;;
11418;SDS011;32800;44.876;13.880;2023-04-03T10:41:47;0.90;;;0.80;;
11418;SDS011;32800;44.876;13.880;2023-04-03T10:46:53;1.20;;;0.80;;
11418;SDS011;32800;44.876;13.880;2023-04-03T10:54:40;4.45;;;3.53;;
11418;SDS011;32800;44.876;13.880;2023-04-03T10:57:12;6.35;;;4.93;;
11418;SDS011;32800;44.876;13.880;2023-04-03T11:05:06;18.05;;;11.13;;
11418;SDS011;32800;44.876;13.880;2023-04-03T11:07:53;14.05;;;10.82;;
11418;SDS011;32800;44.876;13.880;2023-04-03T11:10:21;20.15;;;13.77;;
11418;SDS011;32800;44.876;13.880;2023-04-03T11:13:21;16.55;;;11.88;;
11418;SDS011;32800;44.876;13.880;2023-04-03T11:15:50;20.10;;;13.18;;
11418;SDS011;32800;44.876;13.880;2023-04-03T11:18:19;25.60;;;16.75;;
11418;SDS011;32800;44.876;13.880;2023-04-03T11:20:53;26.45;;;18.40;;
11418;SDS011;32800;44.876;13.880;2023-04-03T11:23:26;21.33;;;14.75;;
11418;SDS011;32800;44.876;13.880;2023-04-03T11:25:56;27.02;;;18.30;;
11418;SDS011;32800;44.876;13.880;2023-04-03T11:28:29;25.67;;;17.55;;
11418;SDS011;32800;44.876;13.880;2023-04-03T11:31:04;29.05;;;18.33;;
11418;SDS011;32800;44.876;13.880;2023-04-03T11:36:52;28.92;;;19.27;;
11418;SDS011;32800;44.876;13.880;2023-04-03T11:39:22;26.30;;;18.73;;
11418;SDS011;32800;44.876;13.880;2023-04-03T11:41:53;29.20;;;18.63;;
11418;SDS011;32800;44.876;13.880;2023-04-03T11:47:04;23.67;;;16.90;;
11418;SDS011;32800;44.876;13.880;2023-04-03T11:52:56;26.95;;;18.30;;
11418;SDS011;32800;44.876;13.880;2023-04-03T12:13:37;28.02;;;19.77;;
11418;SDS011;32800;44.876;13.880;2023-04-03T12:18:59;25.35;;;18.85;;
11418;SDS011;32800;44.876;13.880;2023-04-03T12:27:12;25.75;;;17.45;;
11418;SDS011;32800;44.876;13.880;2023-04-03T12:30:00;27.50;;;18.60;;
11418;SDS011;32800;44.876;13.880;2023-04-03T12:38:17;24.35;;;17.80;;
11418;SDS011;32800;44.876;13.880;2023-04-03T12:40:52;29.67;;;19.08;;
11418;SDS011;32800;44.876;13.880;2023-04-03T12:46:18;26.77;;;17.65;;
11418;SDS011;32800;44.876;13.880;2023-04-03T12:51:13;27.38;;;17.75;;
11418;SDS011;32800;44.876;13.880;2023-04-03T12:53:40;24.98;;;17.60;;
11418;SDS011;32800;44.876;13.880;2023-04-03T12:58:54;26.23;;;17.20;;
11418;SDS011;32800;44.876;13.880;2023-04-03T13:01:25;25.10;;;18.55;;
11418;SDS011;32800;44.876;13.880;2023-04-03T13:03:57;25.30;;;17.25;;
11418;SDS011;32800;44.876;13.880;2023-04-03T13:06:24;25.27;;;17.65;;
11418;SDS011;32800;44.876;13.880;2023-04-03T13:08:53;24.50;;;17.30;;
11418;SDS011;32800;44.876;13.880;2023-04-03T13:11:25;22.73;;;17.00;;
11418;SDS011;32800;44.876;13.880;2023-04-03T13:14:03;23.85;;;17.40;;
11418;SDS011;32800;44.876;13.880;2023-04-03T13:16:31;24.45;;;16.25;;
11418;SDS011;32800;44.876;13.880;2023-04-03T13:18:58;22.77;;;17.27;;
11418;SDS011;32800;44.876;13.880;2023-04-03T13:21:25;25.35;;;16.85;;
11418;SDS011;32800;44.876;13.880;2023-04-03T13:23:54;23.58;;;16.80;;
11418;SDS011;32800;44.876;13.880;2023-04-03T13:26:22;21.20;;;16.08;;
11418;SDS011;32800;44.876;13.880;2023-04-03T13:28:51;22.23;;;15.93;;
11418;SDS011;32800;44.876;13.880;2023-04-03T13:31:18;24.08;;;16.55;;
11418;SDS011;32800;44.876;13.880;2023-04-03T13:33:59;23.85;;;16.92;;
11418;SDS011;32800;44.876;13.880;2023-04-03T13:36:33;20.95;;;15.63;;
11418;SDS011;32800;44.876;13.880;2023-04-03T13:41:32;22.52;;;15.57;;
11418;SDS011;32800;44.876;13.880;2023-04-03T13:46:54;20.98;;;15.23;;
11418;SDS011;32800;44.876;13.880;2023-04-03T13:51:58;22.02;;;15.05;;
11418;SDS011;32800;44.876;13.880;2023-04-03T13:57:11;21.30;;;15.07;;
11418;SDS011;32800;44.876;13.880;2023-04-03T13:59:39;19.33;;;13.68;;
11418;SDS011;32800;44.876;13.880;2023-04-03T14:04:57;20.38;;;14.32;;
11418;SDS011;32800;44.876;13.880;2023-04-03T14:07:26;20.88;;;14.02;;
11418;SDS011;32800;44.876;13.880;2023-04-03T14:09:52;19.42;;;13.55;;
11418;SDS011;32800;44.876;13.880;2023-04-03T14:12:24;18.55;;;13.18;;
11418;SDS011;32800;44.876;13.880;2023-04-03T14:14:52;18.02;;;13.95;;
11418;SDS011;32800;44.876;13.880;2023-04-03T14:17:19;21.83;;;15.00;;
11418;SDS011;32800;44.876;13.880;2023-04-03T14:19:46;18.38;;;13.23;;
11418;SDS011;32800;44.876;13.880;2023-04-03T14:22:23;18.90;;;13.60;;
11418;SDS011;32800;44.876;13.880;2023-04-03T14:24:50;22.23;;;13.88;;
11418;SDS011;32800;44.876;13.880;2023-04-03T14:27:19;19.55;;;13.48;;
11418;SDS011;32800;44.876;13.880;2023-04-03T14:29:47;23.13;;;13.63;;
11418;SDS011;32800;44.876;13.880;2023-04-03T14:32:14;18.45;;;12.80;;
11418;SDS011;32800;44.876;13.880;2023-04-03T14:34:42;19.23;;;13.18;;
11418;SDS011;32800;44.876;13.880;2023-04-03T14:37:18;19.33;;;12.85;;
11418;SDS011;32800;44.876;13.880;2023-04-03T14:39:47;18.60;;;12.85;;
11418;SDS011;32800;44.876;13.880;2023-04-03T14:42:14;23.08;;;12.68;;
11418;SDS011;32800;44.876;13.880;2023-04-03T14:44:42;18.80;;;11.77;;
11418;SDS011;32800;44.876;13.880;2023-04-03T14:47:42;20.48;;;12.60;;
11418;SDS011;32800;44.876;13.880;2023-04-03T14:50:02;16.45;;;11.48;;
11418;SDS011;32800;44.876;13.880;2023-04-03T14:52:31;18.35;;;11.60;;
11418;SDS011;32800;44.876;13.880;2023-04-03T14:54:58;20.90;;;12.48;;
11418;SDS011;32800;44.876;13.880;2023-04-03T14:57:25;17.02;;;12.05;;
11418;SDS011;32800;44.876;13.880;2023-04-03T14:59:52;16.83;;;10.95;;
11418;SDS011;32800;44.876;13.880;2023-04-03T15:04:51;17.00;;;11.95;;
11418;SDS011;32800;44.876;13.880;2023-04-03T15:07:17;17.95;;;11.77;;
11418;SDS011;32800;44.876;13.880;2023-04-03T15:09:42;17.98;;;11.13;;
11418;SDS011;32800;44.876;13.880;2023-04-03T15:12:08;17.17;;;11.35;;
11418;SDS011;32800;44.876;13.880;2023-04-03T15:14:35;15.18;;;10.68;;
11418;SDS011;32800;44.876;13.880;2023-04-03T15:17:00;16.30;;;10.90;;
11418;SDS011;32800;44.876;13.880;2023-04-03T15:19:26;15.20;;;10.60;;
11418;SDS011;32800;44.876;13.880;2023-04-03T15:21:51;17.27;;;10.93;;
11418;SDS011;32800;44.876;13.880;2023-04-03T15:24:17;16.23;;;10.80;;
11418;SDS011;32800;44.876;13.880;2023-04-03T15:26:42;15.15;;;10.98;;
11418;SDS011;32800;44.876;13.880;2023-04-03T15:29:08;17.70;;;11.13;;
11418;SDS011;32800;44.876;13.880;2023-04-03T15:31:34;15.85;;;10.88;;
11418;SDS011;32800;44.876;13.880;2023-04-03T15:33:59;15.73;;;11.18;;
11418;SDS011;32800;44.876;13.880;2023-04-03T15:36:25;15.68;;;10.55;;
11418;SDS011;32800;44.876;13.880;2023-04-03T15:38:50;18.85;;;11.07;;
11418;SDS011;32800;44.876;13.880;2023-04-03T15:41:16;16.90;;;11.18;;
11418;SDS011;32800;44.876;13.880;2023-04-03T15:43:42;14.18;;;9.82;;
11418;SDS011;32800;44.876;13.880;2023-04-03T15:46:07;13.55;;;9.93;;
11418;SDS011;32800;44.876;13.880;2023-04-03T15:48:33;16.20;;;10.63;;
11418;SDS011;32800;44.876;13.880;2023-04-03T15:50:59;13.82;;;9.98;;
11418;SDS011;32800;44.876;13.880;2023-04-03T15:53:25;13.25;;;9.98;;
11418;SDS011;32800;44.876;13.880;2023-04-03T15:55:51;14.55;;;9.93;;
11418;SDS011;32800;44.876;13.880;2023-04-03T15:58:17;15.18;;;10.20;;
11418;SDS011;32800;44.876;13.880;2023-04-03T16:00:43;14.88;;;10.10;;
11418;SDS011;32800;44.876;13.880;2023-04-03T16:03:09;16.55;;;10.38;;
11418;SDS011;32800;44.876;13.880;2023-04-03T16:05:37;14.57;;;9.70;;
11418;SDS011;32800;44.876;13.880;2023-04-03T16:08:03;11.90;;;7.72;;
11418;SDS011;32800;44.876;13.880;2023-04-03T16:10:30;10.93;;;7.15;;
11418;SDS011;32800;44.876;13.880;2023-04-03T16:12:56;12.68;;;8.10;;
11418;SDS011;32800;44.876;13.880;2023-04-03T16:15:22;11.32;;;7.72;;
11418;SDS011;32800;44.876;13.880;2023-04-03T16:17:48;10.55;;;7.25;;
11418;SDS011;32800;44.876;13.880;2023-04-03T16:20:14;13.88;;;7.70;;